Flight Track Log - Related Links

Times and Time Zones

All times are in EDT time to prevent confusion due to time zone crossing. See the EGF556 flight status page for this flight to view local times or setup timezone preferences in your user account.

Time Position Orientation Groundspeed Altitude Reporting Facility
EDT Latitude Longitude Course Direction KTS MPH feet Rate Location/Type
Mon 12:05:00 PM 39.9465 -104.2552 75° East  Level Estimated
Mon 12:06:00 PM 39.9744 -104.1156 75° East  Level Estimated
Mon 12:07:00 PM 40.0022 -103.9760 75° East  Level Estimated
Mon 12:08:00 PM 40.0298 -103.8362 76° East  Level Estimated
Mon 12:09:00 PM 40.0572 -103.6963 76° East  Level Estimated
Mon 12:10:00 PM 40.0844 -103.5563 76° East  Level Estimated
Mon 12:11:00 PM 40.1115 -103.4162 76° East  Level Estimated
Mon 12:12:00 PM 40.1385 -103.2760 76° East  Level Estimated
Mon 12:13:00 PM 40.1652 -103.1356 76° East  Level Estimated
Mon 12:14:00 PM 40.1918 -102.9952 76° East  Level Estimated
Mon 12:15:00 PM 40.2182 -102.8546 76° East  Level Estimated
Mon 12:16:00 PM 40.2444 -102.7139 76° East  Level Estimated
Mon 12:17:00 PM 40.2705 -102.5732 76° East  Level Estimated
Mon 12:18:00 PM 40.2964 -102.4323 76° East  Level Estimated
Mon 12:19:00 PM 40.3221 -102.2913 76° East  Level Estimated
Mon 12:20:00 PM 40.3477 -102.1502 77° East  Level Estimated
Mon 12:21:00 PM 40.3731 -102.0090 77° East  Level Estimated
Mon 12:22:00 PM 40.3983 -101.8677 77° East  Level Estimated
Mon 12:23:00 PM 40.4233 -101.7262 77° East  Level Estimated
Mon 12:24:00 PM 40.4482 -101.5847 77° East  Level Estimated
Mon 12:25:00 PM 40.4729 -101.4431 77° East  Level Estimated
Mon 12:26:00 PM 40.4974 -101.3014 77° East  Level Estimated
Mon 12:27:00 PM 40.5218 -101.1595 77° East  Level Estimated
Mon 12:28:00 PM 40.5460 -101.0176 77° East  Level Estimated
Mon 12:29:00 PM 40.5706 -100.8718 77° East  Level Estimated
Mon 12:30:00 PM 40.5951 -100.7259 78° East  Level Estimated
Mon 12:31:00 PM 40.6193 -100.5798 78° East  Level Estimated
Mon 12:32:00 PM 40.6434 -100.4337 78° East  Level Estimated
Mon 12:33:00 PM 40.6673 -100.2875 78° East  Level Estimated
Mon 12:34:00 PM 40.6911 -100.1411 78° East  Level Estimated
Mon 12:35:00 PM 40.7146 -99.9947 78° East  Level Estimated
Mon 12:36:00 PM 40.7379 -99.8482 78° East  Level Estimated
Mon 12:37:00 PM 40.7611 -99.7015 78° East  Level Estimated
Mon 12:38:00 PM 40.7841 -99.5547 78° East  Level Estimated
Mon 12:39:00 PM 40.8069 -99.4079 78° East  Level Estimated
Mon 12:40:00 PM 40.8295 -99.2609 78° East  Level Estimated
Mon 12:41:00 PM 40.8519 -99.1139 79° East  Level Estimated
Mon 12:42:00 PM 40.8741 -98.9668 79° East  Level Estimated
Mon 12:43:00 PM 40.8962 -98.8195 79° East  Level Estimated
Mon 12:44:00 PM 40.9180 -98.6721 79° East  Level Estimated
Mon 12:45:00 PM 40.9397 -98.5247 79° East  Level Estimated
Mon 12:46:00 PM 40.9612 -98.3772 79° East  Level Estimated
Mon 12:47:00 PM 40.9825 -98.2295 79° East  Level Estimated
Mon 12:48:00 PM 41.0034 -98.0831 79° East  Level Estimated
Mon 12:49:00 PM 41.0241 -97.9365 79° East  Level Estimated
Mon 12:50:00 PM 41.0447 -97.7899 79° East  Level Estimated
Mon 12:51:00 PM 41.0650 -97.6432 80° East  Level Estimated
Mon 12:52:00 PM 41.0852 -97.4964 80° East  Level Estimated
Mon 12:53:00 PM 41.1052 -97.3495 80° East  Level Estimated
Mon 12:54:00 PM 41.1250 -97.2026 80° East  Level Estimated
Mon 12:55:00 PM 41.1446 -97.0555 80° East  Level Estimated
Mon 12:56:00 PM 41.1641 -96.9083 80° East  Level Estimated
Mon 12:57:00 PM 41.1833 -96.7611 80° East  Level Estimated
Mon 12:58:00 PM 41.2024 -96.6137 80° East  Level Estimated
Mon 12:59:00 PM 41.2212 -96.4663 80° East  Level Estimated
Mon 01:00:00 PM 41.2399 -96.3188 80° East  Level Estimated
Mon 01:01:00 PM 41.2584 -96.1712 80° East  Level Estimated
Mon 01:02:00 PM 41.2767 -96.0236 81° East  Level Estimated
Mon 01:03:00 PM 41.2948 -95.8758 81° East  Level Estimated
Mon 01:04:00 PM 41.3127 -95.7280 81° East  Level Estimated
Mon 01:05:00 PM 41.3305 -95.5801 81° East  Level Estimated
Mon 01:06:00 PM 41.3480 -95.4321 81° East  Level Estimated
Mon 01:07:00 PM 41.3654 -95.2840 81° East  Level Estimated
Mon 01:08:00 PM 41.3826 -95.1359 81° East  Level Estimated
Mon 01:09:00 PM 41.3995 -94.9876 81° East  Level Estimated
Mon 01:10:00 PM 41.4163 -94.8393 81° East  Level Estimated
Mon 01:11:00 PM 41.4329 -94.6910 81° East  Level Estimated
Mon 01:12:00 PM 41.4493 -94.5425 82° East  Level Estimated
Mon 01:13:00 PM 41.4655 -94.3940 82° East  Level Estimated
Mon 01:14:00 PM 41.4816 -94.2454 82° East  Level Estimated
Mon 01:15:00 PM 41.4974 -94.0967 82° East  Level Estimated
Mon 01:16:00 PM 41.5130 -93.9480 82° East  Level Estimated
Mon 01:17:00 PM 41.5285 -93.7991 82° East  Level Estimated
Mon 01:18:00 PM 41.5437 -93.6502 82° East  Level Estimated
Mon 01:19:00 PM 41.5588 -93.5013 82° East  Level Estimated
Mon 01:20:00 PM 41.5737 -93.3522 82° East  Level Estimated
Mon 01:21:00 PM 41.5883 -93.2031 82° East  Level Estimated
Mon 01:22:00 PM 41.6028 -93.0540 83° East  Level Estimated
Mon 01:23:00 PM 41.6171 -92.9047 83° East  Level Estimated
Mon 01:24:00 PM 41.6312 -92.7554 83° East  Level Estimated
Mon 01:25:00 PM 41.6451 -92.6061 83° East  Level Estimated
Mon 01:26:00 PM 41.6589 -92.4567 83° East  Level Estimated
Mon 01:27:00 PM 41.6724 -92.3072 83° East  Level Estimated
Mon 01:28:00 PM 41.6857 -92.1576 83° East  Level Estimated
Mon 01:29:00 PM 41.6988 -92.0080 83° East  Level Estimated
Mon 01:30:00 PM 41.7118 -91.8583 83° East  Level Estimated
Mon 01:31:00 PM 41.7245 -91.7086 83° East  Level Estimated
Mon 01:32:00 PM 41.7371 -91.5588 84° East  Level Estimated
Mon 01:33:00 PM 41.7494 -91.4089 84° East  Level Estimated
Mon 01:34:00 PM 41.7616 -91.2590 84° East  Level Estimated
Mon 01:35:00 PM 41.7735 -91.1091 84° East  Level Estimated
Mon 01:36:00 PM 41.7853 -90.9590 84° East  Level Estimated
Mon 01:37:00 PM 41.7969 -90.8090 84° East  Level Estimated
Mon 01:38:00 PM 41.8083 -90.6588 84° East  Level Estimated
Mon 01:39:00 PM 41.8194 -90.5087 84° East  Level Estimated
Mon 01:40:00 PM 41.8304 -90.3584 84° East  Level Estimated
Mon 01:41:00 PM 41.8412 -90.2081 84° East  Level Estimated
Mon 01:42:00 PM 41.8518 -90.0578 85° East  Level Estimated
Mon 01:43:00 PM 41.8622 -89.9074 85° East  Level Estimated
Mon 01:44:00 PM 41.8724 -89.7570 85° East  Level Estimated
Mon 01:45:00 PM 41.8824 -89.6065 85° East  Level Estimated
Mon 01:46:00 PM 41.8922 -89.4560 85° East  Level Estimated
Mon 01:47:00 PM 41.9019 -89.3040 85° East  Level Estimated
Mon 01:48:00 PM 41.9114 -89.1521 85° East  Level Estimated
Mon 01:49:00 PM 41.9207 -89.0001 85° East  Level Estimated
Mon 01:50:00 PM 41.9298 -88.8481 85° East  Level Estimated
Mon 01:51:00 PM 41.9387 -88.6960 85° East  Level Estimated
Mon 01:52:00 PM 41.9474 -88.5439 86° East  Level Estimated
Mon 01:53:00 PM 41.9559 -88.3917 86° East  Level Estimated
Mon 01:54:00 PM 41.9642 -88.2395 86° East  Level Estimated
Mon 01:55:00 PM 41.9723 -88.0872 86° East  Level Estimated

Login

Don't have an account? Register now (free) for customized features, flight alerts, and more!